Annette, Alaska
Current Conditions -  °F | °C
As of 6:53 PM on Thursday 18 Dec 2014 (Local Time) from PANT Reporting Station
Light Rain Light Rain  
Wind Chill: 37°   Ceiling: 4200
Heat Index: 43°   Visibility: 10mi
Dew Point: 37°   Wind: 12mph
Humidity: 80%   Direction: 110°ESE
Pressure: 29.3"   Gusts: 23mph
Location:  55.05°N, 131.6°W
Report Text: PANT 190353Z AUTO 11010G20KT 10SM -RA OVC042 06/03 A2930 RMK AO2 SLP921 P0002 T00610028 TSNO
Loading
Personal Weather Stations






























Interactive Weather Map New forecast layout! Learn more

10-Day Weather Forecast

Advertisements
Track Severe Weather on mobile